sensor_id;sensor_type;location;lat;lon;timestamp;P1;durP1;ratioP1;P2;durP2;ratioP2
57295;SDS011;43146;50.976;18.216;2023-03-14T00:02:20;11.60;;;4.30;;
57295;SDS011;43146;50.976;18.216;2023-03-14T00:04:46;13.20;;;5.10;;
57295;SDS011;43146;50.976;18.216;2023-03-14T00:07:12;12.60;;;4.50;;
57295;SDS011;43146;50.976;18.216;2023-03-14T00:09:39;11.30;;;4.50;;
57295;SDS011;43146;50.976;18.216;2023-03-14T00:12:06;12.40;;;4.30;;
57295;SDS011;43146;50.976;18.216;2023-03-14T00:14:32;13.60;;;4.20;;
57295;SDS011;43146;50.976;18.216;2023-03-14T00:16:58;12.10;;;4.90;;
57295;SDS011;43146;50.976;18.216;2023-03-14T00:19:24;13.00;;;4.80;;
57295;SDS011;43146;50.976;18.216;2023-03-14T00:21:49;11.50;;;4.70;;
57295;SDS011;43146;50.976;18.216;2023-03-14T00:24:15;13.30;;;4.50;;
57295;SDS011;43146;50.976;18.216;2023-03-14T00:26:41;13.20;;;4.50;;
57295;SDS011;43146;50.976;18.216;2023-03-14T00:29:06;10.80;;;3.90;;
57295;SDS011;43146;50.976;18.216;2023-03-14T00:31:32;11.10;;;4.40;;
57295;SDS011;43146;50.976;18.216;2023-03-14T00:33:58;12.20;;;4.20;;
57295;SDS011;43146;50.976;18.216;2023-03-14T00:36:23;13.00;;;4.40;;
57295;SDS011;43146;50.976;18.216;2023-03-14T00:38:49;13.30;;;4.60;;
57295;SDS011;43146;50.976;18.216;2023-03-14T00:41:17;36.70;;;21.90;;
57295;SDS011;43146;50.976;18.216;2023-03-14T00:43:44;11.60;;;5.00;;
57295;SDS011;43146;50.976;18.216;2023-03-14T00:46:10;11.80;;;5.00;;
57295;SDS011;43146;50.976;18.216;2023-03-14T00:48:36;13.30;;;4.80;;
57295;SDS011;43146;50.976;18.216;2023-03-14T00:51:03;14.80;;;7.70;;
57295;SDS011;43146;50.976;18.216;2023-03-14T00:53:29;14.40;;;7.80;;
57295;SDS011;43146;50.976;18.216;2023-03-14T00:55:55;12.80;;;5.80;;
57295;SDS011;43146;50.976;18.216;2023-03-14T00:58:21;11.60;;;4.90;;
57295;SDS011;43146;50.976;18.216;2023-03-14T01:00:47;13.60;;;5.30;;
57295;SDS011;43146;50.976;18.216;2023-03-14T01:03:14;13.30;;;6.20;;
57295;SDS011;43146;50.976;18.216;2023-03-14T01:05:40;11.60;;;4.80;;
57295;SDS011;43146;50.976;18.216;2023-03-14T01:08:07;11.60;;;4.90;;
57295;SDS011;43146;50.976;18.216;2023-03-14T01:10:33;10.40;;;3.90;;
57295;SDS011;43146;50.976;18.216;2023-03-14T01:13:00;15.40;;;4.20;;
57295;SDS011;43146;50.976;18.216;2023-03-14T01:15:25;11.60;;;4.10;;
57295;SDS011;43146;50.976;18.216;2023-03-14T01:17:51;14.30;;;6.50;;
57295;SDS011;43146;50.976;18.216;2023-03-14T01:20:17;11.80;;;4.30;;
57295;SDS011;43146;50.976;18.216;2023-03-14T01:22:43;12.20;;;4.80;;
57295;SDS011;43146;50.976;18.216;2023-03-14T01:25:10;12.10;;;3.80;;
57295;SDS011;43146;50.976;18.216;2023-03-14T01:27:38;10.70;;;3.80;;
57295;SDS011;43146;50.976;18.216;2023-03-14T01:30:04;11.10;;;4.00;;
57295;SDS011;43146;50.976;18.216;2023-03-14T01:32:30;11.90;;;3.90;;
57295;SDS011;43146;50.976;18.216;2023-03-14T01:34:56;11.80;;;4.00;;
57295;SDS011;43146;50.976;18.216;2023-03-14T01:37:22;12.70;;;3.80;;
57295;SDS011;43146;50.976;18.216;2023-03-14T01:39:48;14.80;;;4.10;;
57295;SDS011;43146;50.976;18.216;2023-03-14T01:42:14;10.20;;;3.60;;
57295;SDS011;43146;50.976;18.216;2023-03-14T01:44:50;10.20;;;3.50;;
57295;SDS011;43146;50.976;18.216;2023-03-14T01:47:17;9.70;;;3.50;;
57295;SDS011;43146;50.976;18.216;2023-03-14T01:49:43;12.20;;;3.70;;
57295;SDS011;43146;50.976;18.216;2023-03-14T01:52:18;10.40;;;4.00;;
57295;SDS011;43146;50.976;18.216;2023-03-14T01:54:49;11.90;;;3.90;;
57295;SDS011;43146;50.976;18.216;2023-03-14T01:57:25;9.50;;;3.60;;
57295;SDS011;43146;50.976;18.216;2023-03-14T02:00:14;11.90;;;4.00;;
57295;SDS011;43146;50.976;18.216;2023-03-14T02:02:53;12.20;;;4.20;;
57295;SDS011;43146;50.976;18.216;2023-03-14T02:05:22;10.20;;;3.60;;
57295;SDS011;43146;50.976;18.216;2023-03-14T02:07:50;11.30;;;3.60;;
57295;SDS011;43146;50.976;18.216;2023-03-14T02:10:18;10.80;;;4.10;;
57295;SDS011;43146;50.976;18.216;2023-03-14T02:12:49;10.70;;;4.00;;
57295;SDS011;43146;50.976;18.216;2023-03-14T02:15:16;13.70;;;4.70;;
57295;SDS011;43146;50.976;18.216;2023-03-14T02:17:42;11.80;;;4.10;;
57295;SDS011;43146;50.976;18.216;2023-03-14T02:20:14;11.90;;;3.70;;
57295;SDS011;43146;50.976;18.216;2023-03-14T02:23:01;10.50;;;4.00;;
57295;SDS011;43146;50.976;18.216;2023-03-14T02:28:02;12.20;;;4.10;;
57295;SDS011;43146;50.976;18.216;2023-03-14T02:30:29;12.00;;;4.30;;
57295;SDS011;43146;50.976;18.216;2023-03-14T02:33:00;12.60;;;4.30;;
57295;SDS011;43146;50.976;18.216;2023-03-14T02:35:35;13.10;;;4.10;;
57295;SDS011;43146;50.976;18.216;2023-03-14T02:41:01;13.30;;;4.10;;
57295;SDS011;43146;50.976;18.216;2023-03-14T02:43:28;11.60;;;3.80;;
57295;SDS011;43146;50.976;18.216;2023-03-14T02:45:53;12.70;;;3.80;;
57295;SDS011;43146;50.976;18.216;2023-03-14T02:50:56;12.50;;;3.70;;
57295;SDS011;43146;50.976;18.216;2023-03-14T02:53:24;10.90;;;4.20;;
57295;SDS011;43146;50.976;18.216;2023-03-14T02:55:51;11.20;;;4.10;;
57295;SDS011;43146;50.976;18.216;2023-03-14T02:58:18;12.00;;;4.20;;
57295;SDS011;43146;50.976;18.216;2023-03-14T03:00:44;11.90;;;3.90;;
57295;SDS011;43146;50.976;18.216;2023-03-14T03:03:10;14.20;;;4.80;;
57295;SDS011;43146;50.976;18.216;2023-03-14T03:05:36;17.20;;;5.00;;
57295;SDS011;43146;50.976;18.216;2023-03-14T03:08:03;12.60;;;4.00;;
57295;SDS011;43146;50.976;18.216;2023-03-14T03:10:29;13.60;;;4.70;;
57295;SDS011;43146;50.976;18.216;2023-03-14T03:12:55;11.30;;;5.30;;
57295;SDS011;43146;50.976;18.216;2023-03-14T03:15:21;14.10;;;5.80;;
57295;SDS011;43146;50.976;18.216;2023-03-14T03:17:47;12.80;;;5.40;;
57295;SDS011;43146;50.976;18.216;2023-03-14T03:20:13;11.10;;;4.30;;
57295;SDS011;43146;50.976;18.216;2023-03-14T03:22:39;12.00;;;4.30;;
57295;SDS011;43146;50.976;18.216;2023-03-14T03:25:05;14.10;;;4.30;;
57295;SDS011;43146;50.976;18.216;2023-03-14T03:27:32;14.20;;;4.50;;
57295;SDS011;43146;50.976;18.216;2023-03-14T03:30:02;10.00;;;4.10;;
57295;SDS011;43146;50.976;18.216;2023-03-14T03:32:31;10.70;;;4.00;;
57295;SDS011;43146;50.976;18.216;2023-03-14T03:34:56;11.20;;;3.90;;
57295;SDS011;43146;50.976;18.216;2023-03-14T03:37:22;10.20;;;3.80;;
57295;SDS011;43146;50.976;18.216;2023-03-14T03:39:50;10.10;;;3.80;;
57295;SDS011;43146;50.976;18.216;2023-03-14T03:42:16;10.50;;;3.60;;
57295;SDS011;43146;50.976;18.216;2023-03-14T03:44:42;11.10;;;3.80;;
57295;SDS011;43146;50.976;18.216;2023-03-14T03:47:08;11.00;;;4.10;;
57295;SDS011;43146;50.976;18.216;2023-03-14T03:49:34;11.70;;;3.70;;
57295;SDS011;43146;50.976;18.216;2023-03-14T03:52:00;11.80;;;3.60;;
57295;SDS011;43146;50.976;18.216;2023-03-14T03:54:26;12.20;;;3.50;;
57295;SDS011;43146;50.976;18.216;2023-03-14T03:56:51;10.10;;;3.30;;
57295;SDS011;43146;50.976;18.216;2023-03-14T03:59:17;10.60;;;3.60;;
57295;SDS011;43146;50.976;18.216;2023-03-14T04:01:43;14.30;;;3.90;;
57295;SDS011;43146;50.976;18.216;2023-03-14T04:04:09;8.70;;;3.50;;
57295;SDS011;43146;50.976;18.216;2023-03-14T04:06:35;12.00;;;3.70;;
57295;SDS011;43146;50.976;18.216;2023-03-14T04:09:01;10.50;;;3.80;;
57295;SDS011;43146;50.976;18.216;2023-03-14T04:11:27;10.60;;;3.60;;
57295;SDS011;43146;50.976;18.216;2023-03-14T04:13:52;12.80;;;4.20;;
57295;SDS011;43146;50.976;18.216;2023-03-14T04:16:20;10.50;;;4.10;;
57295;SDS011;43146;50.976;18.216;2023-03-14T04:18:47;10.00;;;3.40;;
57295;SDS011;43146;50.976;18.216;2023-03-14T04:21:13;9.80;;;3.80;;
57295;SDS011;43146;50.976;18.216;2023-03-14T04:23:39;11.10;;;4.00;;
57295;SDS011;43146;50.976;18.216;2023-03-14T04:26:04;8.80;;;3.60;;
57295;SDS011;43146;50.976;18.216;2023-03-14T04:28:30;10.50;;;4.10;;
57295;SDS011;43146;50.976;18.216;2023-03-14T04:30:56;11.50;;;4.00;;
57295;SDS011;43146;50.976;18.216;2023-03-14T04:33:22;10.20;;;4.00;;
57295;SDS011;43146;50.976;18.216;2023-03-14T04:35:48;10.70;;;3.80;;
57295;SDS011;43146;50.976;18.216;2023-03-14T04:38:15;9.80;;;4.10;;
57295;SDS011;43146;50.976;18.216;2023-03-14T04:40:41;13.10;;;4.00;;
57295;SDS011;43146;50.976;18.216;2023-03-14T04:43:10;10.40;;;4.10;;
57295;SDS011;43146;50.976;18.216;2023-03-14T04:45:37;11.50;;;4.20;;
57295;SDS011;43146;50.976;18.216;2023-03-14T04:48:07;10.40;;;3.80;;
57295;SDS011;43146;50.976;18.216;2023-03-14T04:50:32;10.30;;;4.00;;
57295;SDS011;43146;50.976;18.216;2023-03-14T04:52:58;10.30;;;3.90;;
57295;SDS011;43146;50.976;18.216;2023-03-14T04:55:24;10.10;;;3.60;;
57295;SDS011;43146;50.976;18.216;2023-03-14T04:57:49;9.00;;;3.30;;
57295;SDS011;43146;50.976;18.216;2023-03-14T05:00:15;11.60;;;4.40;;
57295;SDS011;43146;50.976;18.216;2023-03-14T05:02:43;10.50;;;4.10;;
57295;SDS011;43146;50.976;18.216;2023-03-14T05:05:10;11.60;;;3.90;;
57295;SDS011;43146;50.976;18.216;2023-03-14T05:07:35;10.80;;;3.50;;
57295;SDS011;43146;50.976;18.216;2023-03-14T05:10:01;12.30;;;3.50;;
57295;SDS011;43146;50.976;18.216;2023-03-14T05:12:28;11.00;;;3.80;;
57295;SDS011;43146;50.976;18.216;2023-03-14T05:14:53;10.10;;;3.60;;
57295;SDS011;43146;50.976;18.216;2023-03-14T05:17:19;10.30;;;3.40;;
57295;SDS011;43146;50.976;18.216;2023-03-14T05:19:46;12.30;;;3.90;;
57295;SDS011;43146;50.976;18.216;2023-03-14T05:22:12;10.70;;;3.40;;
57295;SDS011;43146;50.976;18.216;2023-03-14T05:24:38;11.70;;;3.30;;
57295;SDS011;43146;50.976;18.216;2023-03-14T05:27:04;10.30;;;2.80;;
57295;SDS011;43146;50.976;18.216;2023-03-14T05:29:30;10.70;;;3.70;;
57295;SDS011;43146;50.976;18.216;2023-03-14T05:31:56;10.60;;;3.50;;
57295;SDS011;43146;50.976;18.216;2023-03-14T05:34:22;10.30;;;4.50;;
57295;SDS011;43146;50.976;18.216;2023-03-14T05:36:47;12.20;;;4.00;;
57295;SDS011;43146;50.976;18.216;2023-03-14T05:39:13;11.20;;;4.10;;
57295;SDS011;43146;50.976;18.216;2023-03-14T05:41:38;11.80;;;4.30;;
57295;SDS011;43146;50.976;18.216;2023-03-14T05:44:04;10.90;;;4.00;;
57295;SDS011;43146;50.976;18.216;2023-03-14T05:46:30;10.10;;;3.90;;
57295;SDS011;43146;50.976;18.216;2023-03-14T05:48:56;10.50;;;4.10;;
57295;SDS011;43146;50.976;18.216;2023-03-14T05:51:23;13.50;;;4.40;;
57295;SDS011;43146;50.976;18.216;2023-03-14T05:53:48;11.30;;;4.30;;
57295;SDS011;43146;50.976;18.216;2023-03-14T05:56:14;9.60;;;4.10;;
57295;SDS011;43146;50.976;18.216;2023-03-14T05:58:40;11.70;;;3.70;;
57295;SDS011;43146;50.976;18.216;2023-03-14T06:01:06;13.10;;;4.60;;
57295;SDS011;43146;50.976;18.216;2023-03-14T06:03:32;10.70;;;3.90;;
57295;SDS011;43146;50.976;18.216;2023-03-14T06:05:59;11.80;;;3.90;;
57295;SDS011;43146;50.976;18.216;2023-03-14T06:08:25;10.40;;;4.00;;
57295;SDS011;43146;50.976;18.216;2023-03-14T06:10:51;14.60;;;4.70;;
57295;SDS011;43146;50.976;18.216;2023-03-14T06:13:17;13.80;;;5.00;;
57295;SDS011;43146;50.976;18.216;2023-03-14T06:15:43;13.20;;;4.80;;
57295;SDS011;43146;50.976;18.216;2023-03-14T06:18:09;11.40;;;4.30;;
57295;SDS011;43146;50.976;18.216;2023-03-14T06:20:36;12.70;;;4.00;;
57295;SDS011;43146;50.976;18.216;2023-03-14T06:23:05;12.20;;;4.70;;
57295;SDS011;43146;50.976;18.216;2023-03-14T06:25:31;12.10;;;4.60;;
57295;SDS011;43146;50.976;18.216;2023-03-14T06:27:58;11.80;;;4.80;;
57295;SDS011;43146;50.976;18.216;2023-03-14T06:30:23;11.70;;;4.30;;
57295;SDS011;43146;50.976;18.216;2023-03-14T06:32:49;10.70;;;3.80;;
57295;SDS011;43146;50.976;18.216;2023-03-14T06:35:15;11.70;;;4.30;;
57295;SDS011;43146;50.976;18.216;2023-03-14T06:37:41;9.80;;;4.00;;
57295;SDS011;43146;50.976;18.216;2023-03-14T06:40:08;9.50;;;3.70;;
57295;SDS011;43146;50.976;18.216;2023-03-14T06:42:39;10.90;;;4.00;;
57295;SDS011;43146;50.976;18.216;2023-03-14T06:45:05;10.40;;;4.00;;
57295;SDS011;43146;50.976;18.216;2023-03-14T06:47:31;10.50;;;3.90;;
57295;SDS011;43146;50.976;18.216;2023-03-14T06:49:57;12.40;;;4.00;;
57295;SDS011;43146;50.976;18.216;2023-03-14T06:52:23;10.30;;;4.40;;
57295;SDS011;43146;50.976;18.216;2023-03-14T06:54:48;16.10;;;4.30;;
57295;SDS011;43146;50.976;18.216;2023-03-14T06:57:14;10.20;;;3.80;;
57295;SDS011;43146;50.976;18.216;2023-03-14T06:59:40;11.20;;;3.90;;
57295;SDS011;43146;50.976;18.216;2023-03-14T07:02:07;10.80;;;4.30;;
57295;SDS011;43146;50.976;18.216;2023-03-14T07:04:36;11.60;;;4.10;;
57295;SDS011;43146;50.976;18.216;2023-03-14T07:07:01;12.80;;;4.30;;
57295;SDS011;43146;50.976;18.216;2023-03-14T07:09:27;12.20;;;4.40;;
57295;SDS011;43146;50.976;18.216;2023-03-14T07:11:53;9.90;;;4.00;;
57295;SDS011;43146;50.976;18.216;2023-03-14T07:14:18;13.40;;;4.10;;
57295;SDS011;43146;50.976;18.216;2023-03-14T07:16:44;11.80;;;4.30;;
57295;SDS011;43146;50.976;18.216;2023-03-14T07:19:10;10.40;;;3.80;;
57295;SDS011;43146;50.976;18.216;2023-03-14T07:21:36;13.40;;;4.70;;
57295;SDS011;43146;50.976;18.216;2023-03-14T07:24:02;11.50;;;4.30;;
57295;SDS011;43146;50.976;18.216;2023-03-14T07:26:28;12.20;;;4.10;;
57295;SDS011;43146;50.976;18.216;2023-03-14T07:28:53;12.00;;;4.00;;
57295;SDS011;43146;50.976;18.216;2023-03-14T07:31:19;12.60;;;3.80;;
57295;SDS011;43146;50.976;18.216;2023-03-14T07:33:45;10.90;;;4.50;;
57295;SDS011;43146;50.976;18.216;2023-03-14T07:36:11;10.50;;;3.90;;
57295;SDS011;43146;50.976;18.216;2023-03-14T07:38:37;11.10;;;4.00;;
57295;SDS011;43146;50.976;18.216;2023-03-14T07:41:03;11.80;;;4.20;;
57295;SDS011;43146;50.976;18.216;2023-03-14T07:43:32;12.40;;;4.60;;
57295;SDS011;43146;50.976;18.216;2023-03-14T07:45:58;12.30;;;4.60;;
57295;SDS011;43146;50.976;18.216;2023-03-14T07:48:23;12.60;;;3.70;;
57295;SDS011;43146;50.976;18.216;2023-03-14T07:50:50;13.90;;;4.90;;
57295;SDS011;43146;50.976;18.216;2023-03-14T07:53:17;13.00;;;4.30;;
57295;SDS011;43146;50.976;18.216;2023-03-14T07:55:43;10.90;;;4.60;;
57295;SDS011;43146;50.976;18.216;2023-03-14T07:58:10;11.90;;;4.40;;
57295;SDS011;43146;50.976;18.216;2023-03-14T08:00:36;10.00;;;4.30;;
57295;SDS011;43146;50.976;18.216;2023-03-14T08:03:02;12.60;;;4.50;;
57295;SDS011;43146;50.976;18.216;2023-03-14T08:05:27;10.40;;;4.40;;
57295;SDS011;43146;50.976;18.216;2023-03-14T08:07:53;9.80;;;3.80;;
57295;SDS011;43146;50.976;18.216;2023-03-14T08:10:19;12.60;;;4.70;;
57295;SDS011;43146;50.976;18.216;2023-03-14T08:12:49;13.70;;;4.60;;
57295;SDS011;43146;50.976;18.216;2023-03-14T08:15:15;13.70;;;4.50;;
57295;SDS011;43146;50.976;18.216;2023-03-14T08:17:41;12.40;;;5.10;;
57295;SDS011;43146;50.976;18.216;2023-03-14T08:20:07;12.90;;;4.50;;
57295;SDS011;43146;50.976;18.216;2023-03-14T08:22:36;11.00;;;4.40;;
57295;SDS011;43146;50.976;18.216;2023-03-14T08:25:02;12.40;;;4.60;;
57295;SDS011;43146;50.976;18.216;2023-03-14T08:27:28;11.90;;;4.70;;
57295;SDS011;43146;50.976;18.216;2023-03-14T08:29:54;13.20;;;4.70;;
57295;SDS011;43146;50.976;18.216;2023-03-14T08:32:20;11.50;;;4.80;;
57295;SDS011;43146;50.976;18.216;2023-03-14T08:34:46;13.10;;;4.70;;
57295;SDS011;43146;50.976;18.216;2023-03-14T08:37:12;12.40;;;4.70;;
57295;SDS011;43146;50.976;18.216;2023-03-14T08:39:37;12.50;;;4.10;;
57295;SDS011;43146;50.976;18.216;2023-03-14T08:42:03;11.00;;;4.90;;
57295;SDS011;43146;50.976;18.216;2023-03-14T08:44:29;11.00;;;4.40;;
57295;SDS011;43146;50.976;18.216;2023-03-14T08:46:55;11.20;;;4.50;;
57295;SDS011;43146;50.976;18.216;2023-03-14T08:49:21;15.40;;;8.70;;
57295;SDS011;43146;50.976;18.216;2023-03-14T08:51:46;9.80;;;4.20;;
57295;SDS011;43146;50.976;18.216;2023-03-14T08:54:12;13.50;;;4.40;;
57295;SDS011;43146;50.976;18.216;2023-03-14T08:56:38;10.70;;;4.50;;
57295;SDS011;43146;50.976;18.216;2023-03-14T08:59:04;11.60;;;4.60;;
57295;SDS011;43146;50.976;18.216;2023-03-14T09:01:30;12.40;;;4.80;;
57295;SDS011;43146;50.976;18.216;2023-03-14T09:03:56;10.80;;;4.10;;
57295;SDS011;43146;50.976;18.216;2023-03-14T09:06:22;12.80;;;4.70;;
57295;SDS011;43146;50.976;18.216;2023-03-14T09:08:48;11.80;;;4.00;;
57295;SDS011;43146;50.976;18.216;2023-03-14T09:11:14;10.70;;;4.80;;
57295;SDS011;43146;50.976;18.216;2023-03-14T09:13:40;13.80;;;4.30;;
57295;SDS011;43146;50.976;18.216;2023-03-14T09:16:06;12.80;;;4.90;;
57295;SDS011;43146;50.976;18.216;2023-03-14T09:18:33;13.40;;;4.70;;
57295;SDS011;43146;50.976;18.216;2023-03-14T09:20:59;11.50;;;4.50;;
57295;SDS011;43146;50.976;18.216;2023-03-14T09:23:24;12.30;;;4.90;;
57295;SDS011;43146;50.976;18.216;2023-03-14T09:25:54;9.90;;;4.40;;
57295;SDS011;43146;50.976;18.216;2023-03-14T09:28:21;12.30;;;4.60;;
57295;SDS011;43146;50.976;18.216;2023-03-14T09:30:47;11.50;;;4.40;;
57295;SDS011;43146;50.976;18.216;2023-03-14T09:33:13;13.50;;;5.00;;
57295;SDS011;43146;50.976;18.216;2023-03-14T09:35:38;16.10;;;5.30;;
57295;SDS011;43146;50.976;18.216;2023-03-14T09:38:04;13.40;;;4.70;;
57295;SDS011;43146;50.976;18.216;2023-03-14T09:40:31;11.30;;;4.10;;
57295;SDS011;43146;50.976;18.216;2023-03-14T09:43:00;10.90;;;4.80;;
57295;SDS011;43146;50.976;18.216;2023-03-14T09:45:27;12.90;;;5.00;;
57295;SDS011;43146;50.976;18.216;2023-03-14T09:48:05;14.40;;;4.20;;
57295;SDS011;43146;50.976;18.216;2023-03-14T09:50:42;12.00;;;4.60;;
57295;SDS011;43146;50.976;18.216;2023-03-14T09:53:14;11.50;;;4.60;;
57295;SDS011;43146;50.976;18.216;2023-03-14T09:55:42;14.90;;;4.80;;
57295;SDS011;43146;50.976;18.216;2023-03-14T09:58:11;12.80;;;4.40;;
57295;SDS011;43146;50.976;18.216;2023-03-14T10:00:39;11.20;;;4.50;;
57295;SDS011;43146;50.976;18.216;2023-03-14T10:05:37;12.10;;;4.10;;
57295;SDS011;43146;50.976;18.216;2023-03-14T10:08:03;15.60;;;6.50;;
57295;SDS011;43146;50.976;18.216;2023-03-14T10:10:29;12.90;;;5.60;;
57295;SDS011;43146;50.976;18.216;2023-03-14T10:15:27;11.90;;;4.80;;
57295;SDS011;43146;50.976;18.216;2023-03-14T10:17:58;13.50;;;5.00;;
57295;SDS011;43146;50.976;18.216;2023-03-14T10:20:29;12.90;;;4.70;;
57295;SDS011;43146;50.976;18.216;2023-03-14T10:25:38;12.60;;;5.10;;
57295;SDS011;43146;50.976;18.216;2023-03-14T10:28:11;15.10;;;5.30;;
57295;SDS011;43146;50.976;18.216;2023-03-14T10:30:49;14.30;;;5.60;;
57295;SDS011;43146;50.976;18.216;2023-03-14T10:35:44;13.70;;;6.20;;
57295;SDS011;43146;50.976;18.216;2023-03-14T10:38:13;14.80;;;6.80;;
57295;SDS011;43146;50.976;18.216;2023-03-14T10:40:45;15.70;;;6.60;;
57295;SDS011;43146;50.976;18.216;2023-03-14T10:43:17;16.40;;;5.80;;
57295;SDS011;43146;50.976;18.216;2023-03-14T10:45:51;14.40;;;6.70;;
57295;SDS011;43146;50.976;18.216;2023-03-14T10:48:32;14.70;;;6.80;;
57295;SDS011;43146;50.976;18.216;2023-03-14T10:53:38;15.30;;;7.60;;
57295;SDS011;43146;50.976;18.216;2023-03-14T10:56:06;16.80;;;7.10;;
57295;SDS011;43146;50.976;18.216;2023-03-14T10:58:33;13.90;;;6.40;;
57295;SDS011;43146;50.976;18.216;2023-03-14T11:01:08;17.00;;;6.70;;
57295;SDS011;43146;50.976;18.216;2023-03-14T11:03:42;16.30;;;8.00;;
57295;SDS011;43146;50.976;18.216;2023-03-14T11:09:39;16.50;;;7.80;;
57295;SDS011;43146;50.976;18.216;2023-03-14T11:12:24;16.00;;;7.60;;
57295;SDS011;43146;50.976;18.216;2023-03-14T11:15:15;18.00;;;8.60;;
57295;SDS011;43146;50.976;18.216;2023-03-14T11:18:07;14.70;;;7.00;;
57295;SDS011;43146;50.976;18.216;2023-03-14T11:23:22;15.40;;;7.30;;
57295;SDS011;43146;50.976;18.216;2023-03-14T11:28:21;13.70;;;7.20;;
57295;SDS011;43146;50.976;18.216;2023-03-14T11:31:12;15.50;;;8.00;;
57295;SDS011;43146;50.976;18.216;2023-03-14T11:36:17;17.90;;;7.80;;
57295;SDS011;43146;50.976;18.216;2023-03-14T11:38:50;15.70;;;7.10;;
57295;SDS011;43146;50.976;18.216;2023-03-14T11:41:26;16.40;;;7.30;;
57295;SDS011;43146;50.976;18.216;2023-03-14T11:44:48;14.80;;;7.00;;
57295;SDS011;43146;50.976;18.216;2023-03-14T11:49:40;21.60;;;9.10;;
57295;SDS011;43146;50.976;18.216;2023-03-14T11:52:12;18.30;;;9.30;;
57295;SDS011;43146;50.976;18.216;2023-03-14T11:57:16;28.60;;;13.40;;
57295;SDS011;43146;50.976;18.216;2023-03-14T12:02:22;17.60;;;8.40;;
57295;SDS011;43146;50.976;18.216;2023-03-14T12:07:17;17.70;;;8.30;;
57295;SDS011;43146;50.976;18.216;2023-03-14T12:09:46;18.10;;;8.60;;
57295;SDS011;43146;50.976;18.216;2023-03-14T12:12:14;20.10;;;9.50;;
57295;SDS011;43146;50.976;18.216;2023-03-14T12:14:52;18.70;;;9.00;;
57295;SDS011;43146;50.976;18.216;2023-03-14T12:17:21;17.50;;;8.50;;
57295;SDS011;43146;50.976;18.216;2023-03-14T12:20:03;17.20;;;8.70;;
57295;SDS011;43146;50.976;18.216;2023-03-14T12:22:46;16.40;;;8.30;;
57295;SDS011;43146;50.976;18.216;2023-03-14T12:25:15;17.00;;;8.70;;
57295;SDS011;43146;50.976;18.216;2023-03-14T12:28:02;15.70;;;8.40;;
57295;SDS011;43146;50.976;18.216;2023-03-14T12:30:40;16.40;;;8.60;;
57295;SDS011;43146;50.976;18.216;2023-03-14T12:38:02;19.00;;;9.20;;
57295;SDS011;43146;50.976;18.216;2023-03-14T12:40:33;18.50;;;9.30;;
57295;SDS011;43146;50.976;18.216;2023-03-14T12:43:02;19.20;;;8.70;;
57295;SDS011;43146;50.976;18.216;2023-03-14T12:48:09;20.30;;;9.00;;
57295;SDS011;43146;50.976;18.216;2023-03-14T12:50:44;17.90;;;9.20;;
57295;SDS011;43146;50.976;18.216;2023-03-14T12:58:35;19.30;;;9.50;;
57295;SDS011;43146;50.976;18.216;2023-03-14T13:01:05;17.00;;;8.90;;
57295;SDS011;43146;50.976;18.216;2023-03-14T13:06:49;18.60;;;9.20;;
57295;SDS011;43146;50.976;18.216;2023-03-14T13:11:51;16.70;;;9.40;;
57295;SDS011;43146;50.976;18.216;2023-03-14T13:14:19;17.20;;;8.30;;
57295;SDS011;43146;50.976;18.216;2023-03-14T13:16:46;17.30;;;9.20;;
57295;SDS011;43146;50.976;18.216;2023-03-14T13:19:17;18.90;;;9.50;;
57295;SDS011;43146;50.976;18.216;2023-03-14T13:21:45;17.20;;;8.50;;
57295;SDS011;43146;50.976;18.216;2023-03-14T13:24:26;16.90;;;8.70;;
57295;SDS011;43146;50.976;18.216;2023-03-14T13:26:56;22.80;;;11.30;;
57295;SDS011;43146;50.976;18.216;2023-03-14T13:29:24;22.70;;;12.00;;
57295;SDS011;43146;50.976;18.216;2023-03-14T13:31:53;19.20;;;10.80;;
57295;SDS011;43146;50.976;18.216;2023-03-14T13:34:38;22.20;;;11.10;;
57295;SDS011;43146;50.976;18.216;2023-03-14T13:37:13;24.20;;;11.50;;
57295;SDS011;43146;50.976;18.216;2023-03-14T13:39:41;17.00;;;9.20;;
57295;SDS011;43146;50.976;18.216;2023-03-14T13:42:13;22.10;;;10.20;;
57295;SDS011;43146;50.976;18.216;2023-03-14T13:44:40;16.30;;;7.90;;
57295;SDS011;43146;50.976;18.216;2023-03-14T13:47:11;17.00;;;8.60;;
57295;SDS011;43146;50.976;18.216;2023-03-14T13:49:40;15.80;;;7.50;;
57295;SDS011;43146;50.976;18.216;2023-03-14T13:55:04;16.50;;;9.00;;
57295;SDS011;43146;50.976;18.216;2023-03-14T14:00:20;16.00;;;7.80;;
57295;SDS011;43146;50.976;18.216;2023-03-14T14:02:49;16.10;;;7.80;;
57295;SDS011;43146;50.976;18.216;2023-03-14T14:05:16;15.00;;;7.50;;
57295;SDS011;43146;50.976;18.216;2023-03-14T14:07:42;17.30;;;8.90;;
57295;SDS011;43146;50.976;18.216;2023-03-14T14:10:10;17.70;;;9.40;;
57295;SDS011;43146;50.976;18.216;2023-03-14T14:12:42;16.80;;;8.20;;
57295;SDS011;43146;50.976;18.216;2023-03-14T14:15:21;16.80;;;7.40;;
57295;SDS011;43146;50.976;18.216;2023-03-14T14:17:53;16.70;;;7.80;;
57295;SDS011;43146;50.976;18.216;2023-03-14T14:22:47;19.00;;;9.00;;
57295;SDS011;43146;50.976;18.216;2023-03-14T14:25:14;16.80;;;9.00;;
57295;SDS011;43146;50.976;18.216;2023-03-14T14:27:41;20.30;;;8.80;;
57295;SDS011;43146;50.976;18.216;2023-03-14T14:32:48;18.90;;;9.60;;
57295;SDS011;43146;50.976;18.216;2023-03-14T14:35:25;17.60;;;9.90;;
57295;SDS011;43146;50.976;18.216;2023-03-14T14:37:56;19.10;;;10.30;;
57295;SDS011;43146;50.976;18.216;2023-03-14T14:40:23;21.60;;;10.20;;
57295;SDS011;43146;50.976;18.216;2023-03-14T14:42:54;22.10;;;11.60;;
57295;SDS011;43146;50.976;18.216;2023-03-14T14:45:23;18.90;;;9.60;;
57295;SDS011;43146;50.976;18.216;2023-03-14T14:48:03;18.80;;;8.70;;
57295;SDS011;43146;50.976;18.216;2023-03-14T14:50:32;21.00;;;9.40;;
57295;SDS011;43146;50.976;18.216;2023-03-14T14:55:53;19.10;;;8.80;;
57295;SDS011;43146;50.976;18.216;2023-03-14T14:58:22;18.30;;;9.60;;
57295;SDS011;43146;50.976;18.216;2023-03-14T15:00:57;18.10;;;9.30;;
57295;SDS011;43146;50.976;18.216;2023-03-14T15:03:28;20.60;;;9.50;;
57295;SDS011;43146;50.976;18.216;2023-03-14T15:05:55;16.50;;;8.40;;
57295;SDS011;43146;50.976;18.216;2023-03-14T15:08:21;20.20;;;9.70;;
57295;SDS011;43146;50.976;18.216;2023-03-14T15:10:47;18.70;;;8.90;;
57295;SDS011;43146;50.976;18.216;2023-03-14T15:13:13;21.50;;;10.10;;
57295;SDS011;43146;50.976;18.216;2023-03-14T15:15:38;17.10;;;9.90;;
57295;SDS011;43146;50.976;18.216;2023-03-14T15:18:12;23.90;;;10.80;;
57295;SDS011;43146;50.976;18.216;2023-03-14T15:20:39;20.60;;;10.90;;
57295;SDS011;43146;50.976;18.216;2023-03-14T15:23:11;26.00;;;12.40;;
57295;SDS011;43146;50.976;18.216;2023-03-14T15:25:38;25.10;;;11.50;;
57295;SDS011;43146;50.976;18.216;2023-03-14T15:33:04;19.80;;;9.20;;
57295;SDS011;43146;50.976;18.216;2023-03-14T15:35:34;17.60;;;9.00;;
57295;SDS011;43146;50.976;18.216;2023-03-14T15:38:01;16.80;;;8.90;;
57295;SDS011;43146;50.976;18.216;2023-03-14T15:40:27;18.10;;;9.80;;
57295;SDS011;43146;50.976;18.216;2023-03-14T15:42:52;17.00;;;9.00;;
57295;SDS011;43146;50.976;18.216;2023-03-14T15:45:18;19.60;;;9.80;;
57295;SDS011;43146;50.976;18.216;2023-03-14T15:47:44;20.50;;;9.30;;